Terminal Aerodrome Forecast
Issued by NWS

Home | Current Version | Previous Version | Text Only | Print | Product List | Glossary On
Versions: 1 2 3 4 5 6 7 8 9 10 11 12 13 14 15 16 17 18 19 20 21 22 23 24 25 26 27 28 29
000
FTUS41 KCTP 250601 RRA
TAFBFD
TAF
KBFD 250601Z 2506/2606 21011G18KT P6SM SKC WS020/24040KT
     FM251200 22009G16KT P6SM BKN060 BKN150
     FM251500 24010KT P6SM BKN070 PROB30 2515/2518 4SM -SHRA OVC007
     FM251800 27010KT P6SM -SHRA OVC015
     FM260000 29009KT P6SM OVC015 PROB30 2600/2602 4SM -SHRASN
      OVC007
     FM260200 30009KT P6SM OVC020 PROB30 2602/2605 4SM -SHRASN
      OVC007
     FM260500 30009KT P6SM BKN025 PROB30 2605/2606 1SM -SHRASN
      OVC015=

USA.gov is the U.S. government's official web portal to all federal, state and local government web resources and services.